createdAt,value
2022-12-25T00:00:02.884Z,59.30
2022-12-25T00:01:02.935Z,59.40
2022-12-25T00:02:02.874Z,59.70
2022-12-25T00:03:03.027Z,58.30
2022-12-25T00:04:02.921Z,60.40
2022-12-25T00:05:02.841Z,59.90
2022-12-25T00:06:02.814Z,60.60
2022-12-25T00:07:02.849Z,63.50
2022-12-25T00:08:02.791Z,61.70
2022-12-25T00:09:02.776Z,63.60
2022-12-25T00:10:02.753Z,62.30
2022-12-25T00:11:02.760Z,63.20
2022-12-25T00:12:02.780Z,65.50
2022-12-25T00:13:02.727Z,66.00
2022-12-25T00:14:02.706Z,65.00
2022-12-25T00:15:02.727Z,62.50
2022-12-25T00:16:02.776Z,62.00
2022-12-25T00:17:02.721Z,62.80
2022-12-25T00:18:02.663Z,64.10
2022-12-25T00:19:02.666Z,62.40
2022-12-25T00:20:02.643Z,64.80
2022-12-25T00:21:02.650Z,65.50
2022-12-25T00:22:02.617Z,63.70
2022-12-25T00:23:02.658Z,65.10
2022-12-25T00:24:02.610Z,66.80
2022-12-25T00:25:02.685Z,67.40
2022-12-25T00:26:02.576Z,69.90
2022-12-25T00:27:02.603Z,68.80
2022-12-25T00:28:02.559Z,67.10
2022-12-25T00:29:02.567Z,71.80
2022-12-25T00:30:02.527Z,70.90
2022-12-25T00:31:02.556Z,68.40
2022-12-25T00:32:02.591Z,71.10
2022-12-25T00:33:02.511Z,70.90
2022-12-25T00:34:02.524Z,72.20
2022-12-25T00:35:02.487Z,68.90
2022-12-25T00:36:02.472Z,64.70
2022-12-25T00:37:02.464Z,63.40
2022-12-25T00:38:02.426Z,62.50
2022-12-25T00:39:02.472Z,66.00
2022-12-25T00:40:02.426Z,64.20
2022-12-25T00:41:02.422Z,63.20
2022-12-25T00:42:02.402Z,65.90
2022-12-25T00:43:02.432Z,67.80
2022-12-25T00:44:02.417Z,66.90
2022-12-25T00:45:02.378Z,67.90
2022-12-25T00:46:02.430Z,70.70
2022-12-25T00:47:02.423Z,64.70
2022-12-25T00:48:02.321Z,69.00
2022-12-25T00:49:02.337Z,70.10
2022-12-25T00:50:02.332Z,70.00
2022-12-25T00:51:02.340Z,70.80
2022-12-25T00:52:02.310Z,70.30
2022-12-25T00:53:02.279Z,69.50
2022-12-25T00:54:02.258Z,71.60
2022-12-25T00:55:02.304Z,67.40
2022-12-25T00:56:02.243Z,64.30
2022-12-25T00:57:02.273Z,64.00
2022-12-25T00:58:02.231Z,64.60
2022-12-25T00:59:02.234Z,64.30
2022-12-25T01:00:02.211Z,64.90
2022-12-25T01:01:02.287Z,63.50
2022-12-25T01:02:02.215Z,62.80
2022-12-25T01:03:02.362Z,62.20
2022-12-25T01:04:02.154Z,60.00
2022-12-25T01:05:02.197Z,59.00
2022-12-25T01:06:02.124Z,58.60
2022-12-25T01:07:02.134Z,56.30
2022-12-25T01:08:02.133Z,54.10
2022-12-25T01:09:02.102Z,55.50
2022-12-25T01:10:02.108Z,51.50
2022-12-25T01:11:02.086Z,53.50
2022-12-25T01:12:02.052Z,52.90
2022-12-25T01:13:02.107Z,54.00
2022-12-25T01:14:02.066Z,53.40
2022-12-25T01:15:02.041Z,54.70
2022-12-25T01:16:02.037Z,54.50
2022-12-25T01:17:02.013Z,54.70
2022-12-25T01:18:07.632Z,54.90
2022-12-25T01:19:02.049Z,58.90
2022-12-25T01:20:01.972Z,57.60
2022-12-25T01:21:01.970Z,57.80
2022-12-25T01:22:01.960Z,52.10
2022-12-25T01:23:01.971Z,52.90
2022-12-25T01:24:01.935Z,53.10
2022-12-25T01:25:01.929Z,51.80
2022-12-25T01:26:01.896Z,53.40
2022-12-25T01:27:01.940Z,52.90
2022-12-25T01:28:01.883Z,51.30
2022-12-25T01:29:01.871Z,53.70
2022-12-25T01:30:01.858Z,52.70
2022-12-25T01:31:01.852Z,53.00
2022-12-25T01:32:01.992Z,56.60
2022-12-25T01:33:01.851Z,53.20
2022-12-25T01:34:01.827Z,56.60
2022-12-25T01:35:01.853Z,55.70
2022-12-25T01:36:01.785Z,56.50
2022-12-25T01:37:01.801Z,57.00
2022-12-25T01:38:01.802Z,57.50
2022-12-25T01:39:01.760Z,59.90
2022-12-25T01:40:01.819Z,60.00
2022-12-25T01:41:01.735Z,62.10
2022-12-25T01:42:01.754Z,60.50
2022-12-25T01:43:01.737Z,64.00
2022-12-25T01:44:01.734Z,61.60
2022-12-25T01:45:01.734Z,59.50
2022-12-25T01:46:01.719Z,59.90
2022-12-25T01:47:01.673Z,60.10
2022-12-25T01:48:01.659Z,61.20
2022-12-25T01:49:01.701Z,62.30
2022-12-25T01:50:01.632Z,63.90
2022-12-25T01:51:01.684Z,60.40
2022-12-25T01:52:01.612Z,59.40
2022-12-25T01:53:01.760Z,61.00
2022-12-25T01:54:01.614Z,59.70
2022-12-25T01:55:01.583Z,60.50
2022-12-25T01:56:01.608Z,57.80
2022-12-25T01:57:01.584Z,59.60
2022-12-25T01:58:01.537Z,60.90
2022-12-25T01:59:01.540Z,64.40
2022-12-25T02:00:01.513Z,66.80
2022-12-25T02:01:01.572Z,67.10
2022-12-25T02:02:01.676Z,61.10
2022-12-25T02:03:01.568Z,67.50
2022-12-25T02:04:01.496Z,64.70
2022-12-25T02:05:01.491Z,66.30
2022-12-25T02:06:01.448Z,72.10
2022-12-25T02:07:01.478Z,72.00
2022-12-25T02:08:01.428Z,74.00
2022-12-25T02:09:01.447Z,73.70
2022-12-25T02:10:01.420Z,72.10
2022-12-25T02:11:01.392Z,76.50
2022-12-25T02:12:01.417Z,71.80
2022-12-25T02:13:01.380Z,71.00
2022-12-25T02:14:01.392Z,80.50
2022-12-25T02:15:05.820Z,68.50
2022-12-25T02:16:01.451Z,70.20
2022-12-25T02:17:01.392Z,73.10
2022-12-25T02:18:01.305Z,73.60
2022-12-25T02:19:01.308Z,74.00
2022-12-25T02:20:01.321Z,78.10
2022-12-25T02:21:01.286Z,72.70
2022-12-25T02:22:01.266Z,79.50
2022-12-25T02:23:01.260Z,77.60
2022-12-25T02:24:01.241Z,75.90
2022-12-25T02:25:01.240Z,73.10
2022-12-25T02:26:01.289Z,71.60
2022-12-25T02:27:01.233Z,71.30
2022-12-25T02:28:01.268Z,68.70
2022-12-25T02:29:01.232Z,71.50
2022-12-25T02:30:01.193Z,76.30
2022-12-25T02:31:01.201Z,68.80
2022-12-25T02:32:01.262Z,67.80
2022-12-25T02:33:01.160Z,69.10
2022-12-25T02:34:01.164Z,80.20
2022-12-25T02:35:01.123Z,84.00
2022-12-25T02:36:01.119Z,73.00
2022-12-25T02:37:01.115Z,73.00
2022-12-25T02:38:01.133Z,71.70
2022-12-25T02:39:01.102Z,75.10
2022-12-25T02:40:01.075Z,70.30
2022-12-25T02:41:01.055Z,70.90
2022-12-25T02:42:01.109Z,81.50
2022-12-25T02:43:01.029Z,67.40
2022-12-25T02:44:01.542Z,72.60
2022-12-25T02:45:01.043Z,71.90
2022-12-25T02:46:01.576Z,64.20
2022-12-25T02:47:00.985Z,66.80
2022-12-25T02:48:00.978Z,65.10
2022-12-25T02:49:01.016Z,63.00
2022-12-25T02:50:00.966Z,68.10
2022-12-25T02:51:00.976Z,62.60
2022-12-25T02:52:00.939Z,66.50
2022-12-25T02:53:00.916Z,60.60
2022-12-25T02:54:00.952Z,64.90
2022-12-25T02:55:00.900Z,64.10
2022-12-25T02:56:00.895Z,61.90
2022-12-25T02:57:00.908Z,60.80
2022-12-25T02:58:00.884Z,64.90
2022-12-25T02:59:00.871Z,64.30
2022-12-25T03:00:00.903Z,68.00
2022-12-25T03:01:00.914Z,62.00
2022-12-25T03:02:01.012Z,61.20
2022-12-25T03:03:00.850Z,65.70
2022-12-25T03:04:00.812Z,57.10
2022-12-25T03:05:00.822Z,66.10
2022-12-25T03:06:00.833Z,65.90
2022-12-25T03:07:00.756Z,63.40
2022-12-25T03:08:00.768Z,60.10
2022-12-25T03:09:00.735Z,63.60
2022-12-25T03:10:00.776Z,64.80
2022-12-25T03:11:00.730Z,65.10
2022-12-25T03:12:00.717Z,57.10
2022-12-25T03:13:00.693Z,61.50
2022-12-25T03:14:00.694Z,60.00
2022-12-25T03:15:00.703Z,63.20
2022-12-25T03:16:00.668Z,60.10
2022-12-25T03:17:00.672Z,57.60
2022-12-25T03:18:00.665Z,61.50
2022-12-25T03:19:00.674Z,62.70
2022-12-25T03:20:00.708Z,63.70
2022-12-25T03:21:00.720Z,62.20
2022-12-25T03:22:00.643Z,58.90
2022-12-25T03:23:00.654Z,61.80
2022-12-25T03:24:00.578Z,60.60
2022-12-25T03:25:00.596Z,64.60
2022-12-25T03:26:00.605Z,62.10
2022-12-25T03:27:00.533Z,61.10
2022-12-25T03:28:00.557Z,61.20
2022-12-25T03:29:01.070Z,60.60
2022-12-25T03:30:00.543Z,64.00
2022-12-25T03:31:00.604Z,58.20
2022-12-25T03:32:00.533Z,63.90
2022-12-25T03:33:01.865Z,58.60
2022-12-25T03:34:00.476Z,65.40
2022-12-25T03:35:00.440Z,61.20
2022-12-25T03:36:00.498Z,64.00
2022-12-25T03:37:00.439Z,65.90
2022-12-25T03:38:00.429Z,62.80
2022-12-25T03:39:00.403Z,60.70
2022-12-25T03:40:00.408Z,64.90
2022-12-25T03:41:00.374Z,64.10
2022-12-25T03:42:00.411Z,71.50
2022-12-25T03:43:00.369Z,64.70
2022-12-25T03:44:00.363Z,68.00
2022-12-25T03:45:00.363Z,72.90
2022-12-25T03:46:00.373Z,68.20
2022-12-25T03:47:00.311Z,68.40
2022-12-25T03:48:00.312Z,71.80
2022-12-25T03:49:00.295Z,82.00
2022-12-25T03:50:00.312Z,75.50
2022-12-25T03:51:00.271Z,69.70
2022-12-25T03:52:00.246Z,68.00
2022-12-25T03:53:00.282Z,68.60
2022-12-25T03:54:00.258Z,69.50
2022-12-25T03:55:00.284Z,68.80
2022-12-25T03:56:00.279Z,72.00
2022-12-25T03:57:00.206Z,69.20
2022-12-25T03:58:00.204Z,71.70
2022-12-25T03:59:00.201Z,71.70
2022-12-25T04:00:01.026Z,73.00
2022-12-25T04:01:00.401Z,72.20
2022-12-25T04:02:00.406Z,70.00
2022-12-25T04:03:00.221Z,67.40
2022-12-25T04:04:00.165Z,72.40
2022-12-25T04:05:00.140Z,71.10
2022-12-25T04:06:00.138Z,76.50
2022-12-25T04:07:00.105Z,68.80
2022-12-25T04:08:00.094Z,69.10
2022-12-25T04:09:00.104Z,68.80
2022-12-25T04:10:00.107Z,65.10
2022-12-25T04:11:00.037Z,69.00
2022-12-25T04:12:02.719Z,74.30
2022-12-25T04:13:00.016Z,67.50
2022-12-25T04:14:00.077Z,61.60
2022-12-25T04:14:59.999Z,63.70
2022-12-25T04:16:00.144Z,60.70
2022-12-25T04:16:59.972Z,60.60
2022-12-25T04:18:00.029Z,64.60
2022-12-25T04:18:59.955Z,61.60
2022-12-25T04:20:00.538Z,65.90
2022-12-25T04:20:59.928Z,59.90
2022-12-25T04:21:59.929Z,62.10
2022-12-25T04:22:59.945Z,64.80
2022-12-25T04:23:59.912Z,63.40
2022-12-25T04:24:59.892Z,65.50
2022-12-25T04:25:59.905Z,61.40
2022-12-25T04:26:59.906Z,62.00
2022-12-25T04:27:59.874Z,63.80
2022-12-25T04:28:59.846Z,64.20
2022-12-25T04:29:59.839Z,66.00
2022-12-25T04:30:59.840Z,66.70
2022-12-25T04:31:59.824Z,65.10
2022-12-25T04:32:59.843Z,65.10
2022-12-25T04:33:59.793Z,64.00
2022-12-25T04:34:59.766Z,62.00
2022-12-25T04:35:59.780Z,65.60
2022-12-25T04:36:59.803Z,65.30
2022-12-25T04:37:59.746Z,65.70
2022-12-25T04:38:59.734Z,62.20
2022-12-25T04:39:59.754Z,64.00
2022-12-25T04:40:59.706Z,63.90
2022-12-25T04:41:59.752Z,62.20
2022-12-25T04:42:59.676Z,59.50
2022-12-25T04:43:59.685Z,62.50
2022-12-25T04:44:59.711Z,62.70
2022-12-25T04:45:59.733Z,61.10
2022-12-25T04:46:59.680Z,62.00
2022-12-25T04:47:59.640Z,62.80
2022-12-25T04:48:59.633Z,61.90
2022-12-25T04:49:59.659Z,60.30
2022-12-25T04:50:59.619Z,61.00
2022-12-25T04:51:59.624Z,59.40
2022-12-25T04:52:59.576Z,61.10
2022-12-25T04:53:59.578Z,58.80
2022-12-25T04:54:59.548Z,59.00
2022-12-25T04:55:59.560Z,59.80
2022-12-25T04:56:59.573Z,62.10
2022-12-25T04:57:59.588Z,60.30
2022-12-25T04:58:59.552Z,62.80
2022-12-25T04:59:59.500Z,62.10
2022-12-25T05:00:59.516Z,60.50
2022-12-25T05:01:59.571Z,60.20
2022-12-25T05:02:59.678Z,60.40
2022-12-25T05:03:59.514Z,59.00
2022-12-25T05:04:59.444Z,59.40
2022-12-25T05:05:59.486Z,59.90
2022-12-25T05:06:59.646Z,58.10
2022-12-25T05:07:59.443Z,58.90
2022-12-25T05:08:59.388Z,60.70
2022-12-25T05:09:59.425Z,60.10
2022-12-25T05:10:59.366Z,57.20
2022-12-25T05:11:59.388Z,58.90
2022-12-25T05:12:59.344Z,60.70
2022-12-25T05:13:59.349Z,61.80
2022-12-25T05:14:59.363Z,59.20
2022-12-25T05:15:59.368Z,59.00
2022-12-25T05:16:59.293Z,57.40
2022-12-25T05:17:59.306Z,58.00
2022-12-25T05:18:59.321Z,59.60
2022-12-25T05:19:59.350Z,56.70
2022-12-25T05:20:59.269Z,60.00
2022-12-25T05:21:59.260Z,58.70
2022-12-25T05:22:59.227Z,57.90
2022-12-25T05:23:59.273Z,57.40
2022-12-25T05:24:59.208Z,57.40
2022-12-25T05:25:59.206Z,58.10
2022-12-25T05:26:59.186Z,55.60
2022-12-25T05:27:59.192Z,54.20
2022-12-25T05:28:59.203Z,55.90
2022-12-25T05:29:59.199Z,60.10
2022-12-25T05:30:59.187Z,55.80
2022-12-25T05:31:59.145Z,56.40
2022-12-25T05:32:59.124Z,60.80
2022-12-25T05:33:59.148Z,57.50
2022-12-25T05:34:59.092Z,57.70
2022-12-25T05:35:59.103Z,56.70
2022-12-25T05:36:59.102Z,58.50
2022-12-25T05:37:59.072Z,55.20
2022-12-25T05:38:59.046Z,56.00
2022-12-25T05:39:59.052Z,55.80
2022-12-25T05:40:59.029Z,56.80
2022-12-25T05:41:59.077Z,55.80
2022-12-25T05:42:58.997Z,56.90
2022-12-25T05:43:59.015Z,58.00
2022-12-25T05:44:59.004Z,58.30
2022-12-25T05:45:59.103Z,58.50
2022-12-25T05:46:59.075Z,58.60
2022-12-25T05:47:58.970Z,58.50
2022-12-25T05:48:58.955Z,59.50
2022-12-25T05:49:58.940Z,59.60
2022-12-25T05:50:58.941Z,58.50
2022-12-25T05:51:58.903Z,59.80
2022-12-25T05:53:02.886Z,60.60
2022-12-25T05:53:58.882Z,58.60
2022-12-25T05:54:58.869Z,59.20
2022-12-25T05:55:58.901Z,58.20
2022-12-25T05:56:58.879Z,59.10
2022-12-25T05:57:58.852Z,59.20
2022-12-25T05:58:58.821Z,59.60
2022-12-25T05:59:58.842Z,62.20
2022-12-25T06:00:58.801Z,59.00
2022-12-25T06:01:58.947Z,60.60
2022-12-25T06:02:58.891Z,58.20
2022-12-25T06:03:58.885Z,58.60
2022-12-25T06:04:58.752Z,58.30
2022-12-25T06:05:58.793Z,58.40
2022-12-25T06:06:58.736Z,57.00
2022-12-25T06:07:58.748Z,59.70
2022-12-25T06:08:58.713Z,58.00
2022-12-25T06:09:58.749Z,57.70
2022-12-25T06:10:58.698Z,55.90
2022-12-25T06:11:58.713Z,58.80
2022-12-25T06:12:58.672Z,58.70
2022-12-25T06:13:58.675Z,54.80
2022-12-25T06:14:58.677Z,57.00
2022-12-25T06:15:58.778Z,57.10
2022-12-25T06:16:58.748Z,56.70
2022-12-25T06:17:58.637Z,55.60
2022-12-25T06:18:58.602Z,56.60
2022-12-25T06:19:58.639Z,57.20
2022-12-25T06:20:58.582Z,58.20
2022-12-25T06:21:58.609Z,57.60
2022-12-25T06:22:58.567Z,59.00
2022-12-25T06:23:58.599Z,56.30
2022-12-25T06:24:58.527Z,58.50
2022-12-25T06:25:58.530Z,59.10
2022-12-25T06:26:58.558Z,59.00
2022-12-25T06:27:58.538Z,61.00
2022-12-25T06:29:04.481Z,59.20
2022-12-25T06:30:04.476Z,60.60
2022-12-25T06:31:04.527Z,59.90
2022-12-25T06:31:58.507Z,60.50
2022-12-25T06:32:58.447Z,60.50
2022-12-25T06:33:58.428Z,61.40
2022-12-25T06:34:58.428Z,60.60
2022-12-25T06:35:58.405Z,59.20
2022-12-25T06:36:58.443Z,64.40
2022-12-25T06:37:58.379Z,64.20
2022-12-25T06:38:58.403Z,63.00
2022-12-25T06:39:58.371Z,58.00
2022-12-25T06:40:58.399Z,58.80
2022-12-25T06:41:58.340Z,58.80
2022-12-25T06:42:58.361Z,58.50
2022-12-25T06:43:58.328Z,58.50
2022-12-25T06:44:58.350Z,59.80
2022-12-25T06:45:58.398Z,58.20
2022-12-25T06:46:58.301Z,57.90
2022-12-25T06:47:58.276Z,57.50
2022-12-25T06:48:58.268Z,56.90
2022-12-25T06:49:58.291Z,57.90
2022-12-25T06:50:58.248Z,57.40
2022-12-25T06:51:58.235Z,58.90
2022-12-25T06:52:58.241Z,58.80
2022-12-25T06:53:58.205Z,59.70
2022-12-25T06:54:58.197Z,58.60
2022-12-25T06:55:59.039Z,59.10
2022-12-25T06:56:58.185Z,59.30
2022-12-25T06:57:58.157Z,61.70
2022-12-25T06:58:58.183Z,62.30
2022-12-25T06:59:58.171Z,61.80
2022-12-25T07:00:58.221Z,65.00
2022-12-25T07:01:58.458Z,63.90
2022-12-25T07:02:58.269Z,61.00
2022-12-25T07:03:58.086Z,63.20
2022-12-25T07:04:58.116Z,64.80
2022-12-25T07:05:58.065Z,65.00
2022-12-25T07:06:59.901Z,65.80
2022-12-25T07:07:58.077Z,67.00
2022-12-25T07:08:58.087Z,69.80
2022-12-25T07:09:58.058Z,66.90
2022-12-25T07:10:58.021Z,70.50
2022-12-25T07:11:57.998Z,70.10
2022-12-25T07:12:58.004Z,69.20
2022-12-25T07:13:57.979Z,70.20
2022-12-25T07:14:58.003Z,72.00
2022-12-25T07:15:57.965Z,68.30
2022-12-25T07:16:58.074Z,72.00
2022-12-25T07:17:57.958Z,72.90
2022-12-25T07:18:57.932Z,74.80
2022-12-25T07:19:57.901Z,73.50
2022-12-25T07:20:57.903Z,76.60
2022-12-25T07:21:57.897Z,72.90
2022-12-25T07:22:57.912Z,77.00
2022-12-25T07:23:57.879Z,73.90
2022-12-25T07:24:57.859Z,74.40
2022-12-25T07:25:57.834Z,71.70
2022-12-25T07:26:57.851Z,75.40
2022-12-25T07:27:57.845Z,76.30
2022-12-25T07:28:57.818Z,72.60
2022-12-25T07:29:57.802Z,73.90
2022-12-25T07:30:57.792Z,72.90
2022-12-25T07:31:57.807Z,75.20
2022-12-25T07:32:57.781Z,71.30
2022-12-25T07:33:57.783Z,72.50
2022-12-25T07:34:57.748Z,70.90
2022-12-25T07:35:57.724Z,71.70
2022-12-25T07:36:57.728Z,74.20
2022-12-25T07:37:58.583Z,70.30
2022-12-25T07:38:57.740Z,73.80
2022-12-25T07:39:57.738Z,73.40
2022-12-25T07:40:57.686Z,75.00
2022-12-25T07:41:57.652Z,73.60
2022-12-25T07:42:57.655Z,73.00
2022-12-25T07:43:57.658Z,72.40
2022-12-25T07:44:57.642Z,71.00
2022-12-25T07:45:57.656Z,76.50
2022-12-25T07:46:57.598Z,75.70
2022-12-25T07:48:02.713Z,72.00
2022-12-25T07:48:57.654Z,68.90
2022-12-25T07:49:57.576Z,71.40
2022-12-25T07:50:57.564Z,70.50
2022-12-25T07:51:57.540Z,67.50
2022-12-25T07:52:57.549Z,68.00
2022-12-25T07:53:57.520Z,67.20
2022-12-25T07:54:57.559Z,66.80
2022-12-25T07:55:57.496Z,69.20
2022-12-25T07:56:57.496Z,68.90
2022-12-25T07:57:57.475Z,67.60
2022-12-25T07:58:57.485Z,68.20
2022-12-25T07:59:57.492Z,72.40
2022-12-25T08:00:57.619Z,70.40
2022-12-25T08:01:57.680Z,74.30
2022-12-25T08:02:57.576Z,70.80
2022-12-25T08:03:57.535Z,70.70
2022-12-25T08:04:57.411Z,71.30
2022-12-25T08:05:57.380Z,73.40
2022-12-25T08:06:57.414Z,69.60
2022-12-25T08:07:58.263Z,70.20
2022-12-25T08:08:57.423Z,73.80
2022-12-25T08:09:57.345Z,72.40
2022-12-25T08:10:57.328Z,72.60
2022-12-25T08:11:57.338Z,68.70
2022-12-25T08:12:57.322Z,70.20
2022-12-25T08:13:57.341Z,69.50
2022-12-25T08:14:57.308Z,69.10
2022-12-25T08:15:57.266Z,65.10
2022-12-25T08:16:57.330Z,65.90
2022-12-25T08:17:57.243Z,64.50
2022-12-25T08:18:57.256Z,63.60
2022-12-25T08:19:57.253Z,67.20
2022-12-25T08:20:57.229Z,61.60
2022-12-25T08:21:57.204Z,61.10
2022-12-25T08:22:57.248Z,60.70
2022-12-25T08:23:57.192Z,60.70
2022-12-25T08:24:57.182Z,59.70
2022-12-25T08:26:02.372Z,60.80
2022-12-25T08:26:57.164Z,60.20
2022-12-25T08:27:57.181Z,58.40
2022-12-25T08:28:57.142Z,58.50
2022-12-25T08:29:57.112Z,57.60
2022-12-25T08:30:57.183Z,57.40
2022-12-25T08:31:57.334Z,57.60
2022-12-25T08:32:57.128Z,58.20
2022-12-25T08:33:57.070Z,56.80
2022-12-25T08:34:57.074Z,55.10
2022-12-25T08:35:57.045Z,54.30
2022-12-25T08:36:57.052Z,56.20
2022-12-25T08:37:57.055Z,54.90
2022-12-25T08:39:02.521Z,58.00
2022-12-25T08:39:57.057Z,56.50
2022-12-25T08:40:57.014Z,56.40
2022-12-25T08:41:56.983Z,54.10
2022-12-25T08:42:56.989Z,53.40
2022-12-25T08:43:56.980Z,53.50
2022-12-25T08:44:56.989Z,53.40
2022-12-25T08:45:57.061Z,54.70
2022-12-25T08:46:59.090Z,52.70
2022-12-25T08:47:56.975Z,54.00
2022-12-25T08:48:57.010Z,53.90
2022-12-25T08:49:57.337Z,53.60
2022-12-25T08:50:56.904Z,53.50
2022-12-25T08:51:56.883Z,53.30
2022-12-25T08:52:56.900Z,54.30
2022-12-25T08:53:56.883Z,53.10
2022-12-25T08:54:56.898Z,53.40
2022-12-25T08:55:56.838Z,53.00
2022-12-25T08:57:02.445Z,54.20
2022-12-25T08:57:56.804Z,53.80
2022-12-25T08:58:56.859Z,53.90
2022-12-25T08:59:56.812Z,54.10
2022-12-25T09:00:56.887Z,54.80
2022-12-25T09:01:56.937Z,53.90
2022-12-25T09:02:56.839Z,53.20
2022-12-25T09:03:56.759Z,58.20
2022-12-25T09:04:56.776Z,58.30
2022-12-25T09:05:56.705Z,54.90
2022-12-25T09:06:56.755Z,55.10
2022-12-25T09:07:56.692Z,55.40
2022-12-25T09:08:56.727Z,57.40
2022-12-25T09:09:56.686Z,54.80
2022-12-25T09:10:56.677Z,57.20
2022-12-25T09:11:56.648Z,57.00
2022-12-25T09:12:56.652Z,57.70
2022-12-25T09:13:56.670Z,58.50
2022-12-25T09:14:56.623Z,59.00
2022-12-25T09:15:56.649Z,58.00
2022-12-25T09:16:56.604Z,57.90
2022-12-25T09:17:56.576Z,59.40
2022-12-25T09:18:56.613Z,56.70
2022-12-25T09:19:56.547Z,56.30
2022-12-25T09:20:56.564Z,57.20
2022-12-25T09:21:56.535Z,57.90
2022-12-25T09:22:56.560Z,58.00
2022-12-25T09:23:56.509Z,60.10
2022-12-25T09:24:56.521Z,58.70
2022-12-25T09:25:56.481Z,59.30
2022-12-25T09:26:56.482Z,61.50
2022-12-25T09:27:56.531Z,60.90
2022-12-25T09:28:56.483Z,58.00
2022-12-25T09:29:56.443Z,60.60
2022-12-25T09:30:56.496Z,61.90
2022-12-25T09:31:56.413Z,66.00
2022-12-25T09:32:56.425Z,64.00
2022-12-25T09:33:56.424Z,62.70
2022-12-25T09:34:56.395Z,65.20
2022-12-25T09:35:56.367Z,64.20
2022-12-25T09:36:56.369Z,69.90
2022-12-25T09:37:56.359Z,64.60
2022-12-25T09:38:56.388Z,66.40
2022-12-25T09:39:56.334Z,62.90
2022-12-25T09:40:56.330Z,68.10
2022-12-25T09:41:56.303Z,66.60
2022-12-25T09:42:56.304Z,65.40
2022-12-25T09:43:56.314Z,68.60
2022-12-25T09:44:56.285Z,65.90
2022-12-25T09:45:56.310Z,65.20
2022-12-25T09:46:56.346Z,63.60
2022-12-25T09:47:56.235Z,62.90
2022-12-25T09:48:56.321Z,64.00
2022-12-25T09:49:56.235Z,65.70
2022-12-25T09:50:56.257Z,63.30
2022-12-25T09:51:56.185Z,64.20
2022-12-25T09:52:56.189Z,63.40
2022-12-25T09:53:56.172Z,64.60
2022-12-25T09:54:56.202Z,66.50
2022-12-25T09:55:56.148Z,62.70
2022-12-25T09:56:56.183Z,62.90
2022-12-25T09:57:56.128Z,67.80
2022-12-25T09:58:56.133Z,69.20
2022-12-25T09:59:56.113Z,67.90
2022-12-25T10:00:56.121Z,67.10
2022-12-25T10:01:56.187Z,67.10
2022-12-25T10:02:56.284Z,65.70
2022-12-25T10:03:56.144Z,65.80
2022-12-25T10:04:56.061Z,64.90
2022-12-25T10:05:56.066Z,66.10
2022-12-25T10:06:56.036Z,65.90
2022-12-25T10:07:56.020Z,65.40
2022-12-25T10:08:56.061Z,64.60
2022-12-25T10:09:56.011Z,65.80
2022-12-25T10:10:56.031Z,63.60
2022-12-25T10:11:56.022Z,64.70
2022-12-25T10:12:55.984Z,63.60
2022-12-25T10:13:56.007Z,63.70
2022-12-25T10:14:55.939Z,62.50
2022-12-25T10:15:55.976Z,64.30
2022-12-25T10:16:55.912Z,65.30
2022-12-25T10:17:55.952Z,67.10
2022-12-25T10:18:55.911Z,66.70
2022-12-25T10:19:55.889Z,65.40
2022-12-25T10:20:55.872Z,65.90
2022-12-25T10:21:55.877Z,68.10
2022-12-25T10:22:55.891Z,66.80
2022-12-25T10:23:55.886Z,68.20
2022-12-25T10:24:55.830Z,66.40
2022-12-25T10:25:55.813Z,66.00
2022-12-25T10:26:55.799Z,65.40
2022-12-25T10:27:55.855Z,64.30
2022-12-25T10:28:55.771Z,62.20
2022-12-25T10:29:55.782Z,65.00
2022-12-25T10:30:55.834Z,66.50
2022-12-25T10:31:55.779Z,60.50
2022-12-25T10:32:55.770Z,63.40
2022-12-25T10:33:55.767Z,62.20
2022-12-25T10:34:55.726Z,59.20
2022-12-25T10:35:55.710Z,62.50
2022-12-25T10:36:55.699Z,61.50
2022-12-25T10:37:55.685Z,58.60
2022-12-25T10:38:55.717Z,62.40
2022-12-25T10:39:55.672Z,61.00
2022-12-25T10:40:55.703Z,57.70
2022-12-25T10:41:55.644Z,57.60
2022-12-25T10:42:55.658Z,58.30
2022-12-25T10:43:55.647Z,57.50
2022-12-25T10:44:55.596Z,57.40
2022-12-25T10:45:56.581Z,57.70
2022-12-25T10:46:55.631Z,58.30
2022-12-25T10:48:03.440Z,56.70
2022-12-25T10:48:55.589Z,56.20
2022-12-25T10:49:55.554Z,54.60
2022-12-25T10:50:55.530Z,55.90
2022-12-25T10:51:55.566Z,54.30
2022-12-25T10:52:55.617Z,53.30
2022-12-25T10:53:55.510Z,53.30
2022-12-25T10:54:55.491Z,54.10
2022-12-25T10:55:55.483Z,51.80
2022-12-25T10:56:55.461Z,53.10
2022-12-25T10:57:55.503Z,52.10
2022-12-25T10:58:56.500Z,53.20
2022-12-25T10:59:55.440Z,51.70
2022-12-25T11:00:55.467Z,50.80
2022-12-25T11:01:55.874Z,51.10
2022-12-25T11:02:55.757Z,52.20
2022-12-25T11:03:55.482Z,49.60
2022-12-25T11:04:55.365Z,50.40
2022-12-25T11:05:55.372Z,48.70
2022-12-25T11:06:55.347Z,49.70
2022-12-25T11:07:55.365Z,46.50
2022-12-25T11:08:55.370Z,48.10
2022-12-25T11:09:59.334Z,47.70
2022-12-25T11:10:55.344Z,48.70
2022-12-25T11:11:55.354Z,47.20
2022-12-25T11:12:55.397Z,45.10
2022-12-25T11:13:55.273Z,45.30
2022-12-25T11:14:55.259Z,43.60
2022-12-25T11:15:55.276Z,45.30
2022-12-25T11:16:55.227Z,44.40
2022-12-25T11:17:55.312Z,43.90
2022-12-25T11:18:55.207Z,42.40
2022-12-25T11:19:55.259Z,42.50
2022-12-25T11:20:55.208Z,43.10
2022-12-25T11:21:55.237Z,42.10
2022-12-25T11:22:55.219Z,42.30
2022-12-25T11:23:55.237Z,42.30
2022-12-25T11:24:55.131Z,42.70
2022-12-25T11:25:55.150Z,40.70
2022-12-25T11:26:55.147Z,41.80
2022-12-25T11:27:55.121Z,39.70
2022-12-25T11:28:55.112Z,39.80
2022-12-25T11:29:55.125Z,39.90
2022-12-25T11:30:55.101Z,37.90
2022-12-25T11:31:55.174Z,37.80
2022-12-25T11:32:55.048Z,37.60
2022-12-25T11:33:55.050Z,38.00
2022-12-25T11:34:56.201Z,36.80
2022-12-25T11:35:55.025Z,36.00
2022-12-25T11:36:55.515Z,35.10
2022-12-25T11:37:55.036Z,36.10
2022-12-25T11:38:55.150Z,32.60
2022-12-25T11:39:55.023Z,35.80
2022-12-25T11:40:54.968Z,33.40
2022-12-25T11:41:55.017Z,33.30
2022-12-25T11:42:54.937Z,33.00
2022-12-25T11:43:54.940Z,32.90
2022-12-25T11:44:55.211Z,33.40
2022-12-25T11:45:54.948Z,33.10
2022-12-25T11:46:55.065Z,32.30
2022-12-25T11:47:54.890Z,31.80
2022-12-25T11:48:54.899Z,31.10
2022-12-25T11:50:00.032Z,29.90
2022-12-25T11:50:54.839Z,29.90
2022-12-25T11:51:54.921Z,31.10
2022-12-25T11:52:54.822Z,30.20
2022-12-25T11:53:54.852Z,30.30
2022-12-25T11:54:54.810Z,28.80
2022-12-25T11:55:54.884Z,29.20
2022-12-25T11:56:54.805Z,28.90
2022-12-25T11:57:54.816Z,29.40
2022-12-25T11:58:54.795Z,28.80
2022-12-25T11:59:54.752Z,28.70
2022-12-25T12:00:54.737Z,27.80
2022-12-25T12:01:54.869Z,27.90
2022-12-25T12:02:54.868Z,29.20
2022-12-25T12:03:54.791Z,27.80
2022-12-25T12:04:54.682Z,27.70
2022-12-25T12:05:54.682Z,27.40
2022-12-25T12:06:54.667Z,27.40
2022-12-25T12:07:54.660Z,27.40
2022-12-25T12:08:54.661Z,26.80
2022-12-25T12:09:54.636Z,27.30
2022-12-25T12:10:54.661Z,26.50
2022-12-25T12:11:54.614Z,26.00
2022-12-25T12:12:54.607Z,25.30
2022-12-25T12:13:54.585Z,25.10
2022-12-25T12:14:54.562Z,24.90
2022-12-25T12:15:54.572Z,25.40
2022-12-25T12:16:54.701Z,24.10
2022-12-25T12:17:54.542Z,25.90
2022-12-25T12:18:54.555Z,24.50
2022-12-25T12:19:54.529Z,24.40
2022-12-25T12:20:54.542Z,23.70
2022-12-25T12:21:54.598Z,23.20
2022-12-25T12:22:54.481Z,24.50
2022-12-25T12:23:54.529Z,22.80
2022-12-25T12:24:54.457Z,23.30
2022-12-25T12:25:54.459Z,22.30
2022-12-25T12:26:54.438Z,23.80
2022-12-25T12:27:58.458Z,22.90
2022-12-25T12:28:54.426Z,23.20
2022-12-25T12:29:54.451Z,21.90
2022-12-25T12:30:54.380Z,22.30
2022-12-25T12:31:54.492Z,22.00
2022-12-25T12:32:54.549Z,23.00
2022-12-25T12:33:54.367Z,21.20
2022-12-25T12:34:56.230Z,22.00
2022-12-25T12:35:54.396Z,21.80
2022-12-25T12:36:54.319Z,21.50
2022-12-25T12:37:54.351Z,21.60
2022-12-25T12:38:54.290Z,21.50
2022-12-25T12:39:54.331Z,21.60
2022-12-25T12:40:54.287Z,22.00
2022-12-25T12:41:54.301Z,22.20
2022-12-25T12:42:54.253Z,22.10
2022-12-25T12:43:54.244Z,21.80
2022-12-25T12:44:54.223Z,21.40
2022-12-25T12:45:54.286Z,20.40
2022-12-25T12:46:54.250Z,20.80
2022-12-25T12:47:54.207Z,21.20
2022-12-25T12:48:54.195Z,21.60
2022-12-25T12:49:54.184Z,20.20
2022-12-25T12:50:54.177Z,20.80
2022-12-25T12:51:54.198Z,20.30